Time;durP1;ratioP1;P1;durP2;ratioP2;P2;SDS_P1;SDS_P2;PMS_P1;PMS_P2;Temp;Humidity;BMP_temperature;BMP_pressure;BME280_temperature;BME280_humidity;BME280_pressure;Samples;Min_cycle;Max_cycle;Signal;HPM_P1;HPM_P2
2024/05/02 00:01:26;;;;;;;5.47;2.50;;;20.40;56.70;;;;;;5341471;26;20687;-63
2024/05/02 00:03:52;;;;;;;4.00;2.37;;;20.40;57.10;;;;;;5341543;26;20340;-62
2024/05/02 00:06:17;;;;;;;3.92;2.20;;;20.40;57.00;;;;;;5341111;26;20369;-63
2024/05/02 00:08:43;;;;;;;7.13;2.22;;;20.40;57.30;;;;;;5340851;26;20380;-63
2024/05/02 00:11:09;;;;;;;7.07;2.40;;;20.30;57.20;;;;;;5343768;26;20345;-63
2024/05/02 00:13:35;;;;;;;6.05;2.00;;;20.20;57.50;;;;;;5341162;26;20381;-62
2024/05/02 00:16:01;;;;;;;4.00;2.33;;;20.20;57.60;;;;;;5341914;26;20332;-62
2024/05/02 00:18:26;;;;;;;5.38;2.30;;;20.20;57.60;;;;;;5342891;26;20377;-63
2024/05/02 00:20:52;;;;;;;4.40;2.20;;;20.20;57.90;;;;;;5342429;26;20333;-62
2024/05/02 00:23:17;;;;;;;3.63;2.10;;;20.20;57.80;;;;;;5338805;26;20341;-61
2024/05/02 00:25:43;;;;;;;4.50;2.10;;;20.20;57.80;;;;;;5339967;26;20828;-62
2024/05/02 00:28:09;;;;;;;4.47;2.00;;;20.20;58.00;;;;;;5339789;26;20340;-62
2024/05/02 00:30:36;;;;;;;2.75;2.20;;;20.10;57.90;;;;;;5341821;26;20415;-63
2024/05/02 00:33:02;;;;;;;3.75;2.15;;;20.10;58.00;;;;;;5341108;26;20329;-62
2024/05/02 00:35:28;;;;;;;6.33;2.40;;;20.10;58.20;;;;;;5341072;26;20340;-62
2024/05/02 00:37:53;;;;;;;2.63;2.05;;;20.10;58.10;;;;;;5340122;26;20895;-62
2024/05/02 00:40:19;;;;;;;5.93;2.10;;;20.00;58.20;;;;;;5342049;26;20349;-62
2024/05/02 00:42:49;;;;;;;7.17;2.30;;;20.10;58.30;;;;;;5340738;26;20373;-62
2024/05/02 00:45:15;;;;;;;7.47;2.22;;;20.00;58.30;;;;;;5341003;26;20332;-63
2024/05/02 00:47:41;;;;;;;6.13;2.30;;;20.00;58.30;;;;;;5340905;26;20398;-63
2024/05/02 00:50:08;;;;;;;7.55;2.03;;;20.00;58.50;;;;;;5341390;26;20850;-62
2024/05/02 00:52:35;;;;;;;4.80;2.20;;;19.90;58.50;;;;;;5341747;26;20875;-63
2024/05/02 00:55:01;;;;;;;4.73;2.10;;;19.90;58.60;;;;;;5338911;26;20345;-63
2024/05/02 00:57:27;;;;;;;5.78;2.40;;;19.90;58.70;;;;;;5340981;26;20368;-63
2024/05/02 00:59:53;;;;;;;5.15;2.75;;;19.90;58.70;;;;;;5341155;26;20340;-61
2024/05/02 01:02:18;;;;;;;3.45;2.20;;;19.80;58.70;;;;;;5339283;26;20656;-63
2024/05/02 01:04:44;;;;;;;4.70;2.47;;;19.80;59.10;;;;;;5340634;26;20319;-63
2024/05/02 01:07:10;;;;;;;5.07;2.50;;;19.70;59.30;;;;;;5340977;26;20356;-61
2024/05/02 01:09:36;;;;;;;3.90;2.03;;;19.70;59.40;;;;;;5338450;26;20433;-62
2024/05/02 01:12:01;;;;;;;3.90;2.30;;;19.60;59.70;;;;;;5341163;26;20359;-61
2024/05/02 01:14:27;;;;;;;4.63;2.20;;;19.70;59.80;;;;;;5340188;26;20360;-63
2024/05/02 01:16:53;;;;;;;3.37;2.40;;;19.60;59.90;;;;;;5340994;26;20372;-62
2024/05/02 01:19:18;;;;;;;3.67;2.23;;;19.50;60.00;;;;;;5340922;26;20364;-63
2024/05/02 01:21:44;;;;;;;6.13;2.33;;;19.50;60.20;;;;;;5340718;26;20439;-63
2024/05/02 01:24:10;;;;;;;4.53;2.10;;;19.50;60.20;;;;;;5338630;26;21209;-62
2024/05/02 01:26:35;;;;;;;5.47;2.33;;;19.40;60.70;;;;;;5340917;26;20360;-63
2024/05/02 01:29:01;;;;;;;4.05;2.28;;;19.40;60.90;;;;;;5337925;26;20345;-63
2024/05/02 01:31:27;;;;;;;4.47;2.30;;;19.40;61.00;;;;;;5341118;26;20368;-63
2024/05/02 01:33:53;;;;;;;5.72;2.75;;;19.40;60.90;;;;;;5339766;26;20340;-63
2024/05/02 01:36:19;;;;;;;9.20;2.60;;;19.40;60.90;;;;;;5339911;26;20424;-61
2024/05/02 01:38:45;;;;;;;3.73;2.47;;;19.30;61.40;;;;;;5337078;26;20477;-61
2024/05/02 01:41:10;;;;;;;4.88;2.45;;;19.30;61.20;;;;;;5340494;26;20746;-61
2024/05/02 01:43:36;;;;;;;6.00;2.60;;;19.30;61.30;;;;;;5339856;26;20431;-63
2024/05/02 01:46:02;;;;;;;7.22;2.50;;;19.20;61.70;;;;;;5338867;26;20420;-62
2024/05/02 01:48:27;;;;;;;4.88;2.30;;;19.10;62.00;;;;;;5340453;26;20368;-62
2024/05/02 01:50:53;;;;;;;4.03;2.20;;;19.10;62.20;;;;;;5339262;26;20329;-63
2024/05/02 01:53:19;;;;;;;6.13;2.65;;;19.00;62.30;;;;;;5340850;26;20845;-62
2024/05/02 01:55:45;;;;;;;3.83;2.23;;;19.00;62.20;;;;;;5338646;26;20333;-61
2024/05/02 01:58:10;;;;;;;5.78;2.33;;;18.90;62.80;;;;;;5338642;26;20961;-62
2024/05/02 02:00:36;;;;;;;3.22;2.20;;;19.00;62.90;;;;;;5340140;26;20380;-62
2024/05/02 02:03:02;;;;;;;2.90;2.27;;;18.90;62.70;;;;;;5340665;26;20336;-63
2024/05/02 02:05:28;;;;;;;5.82;2.70;;;18.90;63.00;;;;;;5338461;26;20371;-62
2024/05/02 02:07:53;;;;;;;6.68;2.97;;;18.80;63.20;;;;;;5338731;26;20336;-62
2024/05/02 02:10:19;;;;;;;5.68;2.58;;;18.80;63.20;;;;;;5340521;26;20400;-62
2024/05/02 02:12:45;;;;;;;6.20;2.57;;;18.80;63.40;;;;;;5340502;26;20431;-62
2024/05/02 02:15:14;;;;;;;5.30;3.08;;;18.80;63.50;;;;;;5339334;26;20337;-61
2024/05/02 02:17:40;;;;;;;5.25;2.20;;;18.80;63.50;;;;;;5338751;26;20372;-63
2024/05/02 02:20:06;;;;;;;4.83;2.20;;;18.80;63.70;;;;;;5337899;26;20332;-63
2024/05/02 02:22:32;;;;;;;5.22;2.30;;;18.70;63.80;;;;;;5340459;26;20499;-62
2024/05/02 02:24:58;;;;;;;5.78;2.65;;;18.70;64.00;;;;;;5338647;26;20834;-63
2024/05/02 02:27:23;;;;;;;6.73;2.70;;;18.70;63.70;;;;;;5339751;26;20345;-64
2024/05/02 02:29:49;;;;;;;3.40;2.10;;;18.70;63.70;;;;;;5340033;26;20329;-61
2024/05/02 02:32:14;;;;;;;5.38;2.78;;;18.70;63.90;;;;;;5337763;26;20956;-63
2024/05/02 02:34:40;;;;;;;2.83;2.30;;;18.70;64.00;;;;;;5339141;26;20428;-62
2024/05/02 02:37:06;;;;;;;5.40;2.20;;;18.70;63.50;;;;;;5339122;26;20440;-62
2024/05/02 02:39:32;;;;;;;6.78;2.20;;;18.70;64.10;;;;;;5339088;26;20340;-62
2024/05/02 02:41:57;;;;;;;5.35;2.35;;;18.70;64.10;;;;;;5339894;26;20337;-62
2024/05/02 02:44:23;;;;;;;7.90;2.72;;;18.60;64.50;;;;;;5338929;26;20379;-63
2024/05/02 02:46:49;;;;;;;5.77;2.37;;;18.50;65.20;;;;;;5339243;26;20434;-63
2024/05/02 02:49:14;;;;;;;5.55;2.40;;;18.60;64.30;;;;;;5343715;26;20803;-64
2024/05/02 02:51:40;;;;;;;4.20;2.20;;;18.60;64.50;;;;;;5342229;26;20344;-62
2024/05/02 02:54:06;;;;;;;8.10;2.28;;;18.60;64.40;;;;;;5343659;26;20429;-63
2024/05/02 02:56:31;;;;;;;5.73;3.17;;;18.50;64.60;;;;;;5342068;26;21368;-63
2024/05/02 02:58:57;;;;;;;8.30;2.67;;;18.50;64.40;;;;;;5342625;26;20716;-61
2024/05/02 03:01:23;;;;;;;6.22;2.33;;;18.50;64.50;;;;;;5343859;26;20985;-63
2024/05/02 03:03:48;;;;;;;4.37;2.10;;;18.60;64.30;;;;;;5342506;26;20348;-62
2024/05/02 03:06:18;;;;;;;3.30;2.17;;;18.50;64.40;;;;;;5342339;26;20337;-63
2024/05/02 03:08:44;;;;;;;5.00;2.65;;;18.50;64.60;;;;;;5342928;26;20337;-63
2024/05/02 03:11:10;;;;;;;4.47;2.33;;;18.40;64.60;;;;;;5341019;26;20340;-62
2024/05/02 03:13:36;;;;;;;4.60;2.20;;;18.40;64.60;;;;;;5341468;26;20399;-62
2024/05/02 03:16:13;;;;;;;4.50;2.25;;;18.40;64.80;;;;;;5342738;26;20478;-62
2024/05/02 03:18:40;;;;;;;7.25;2.03;;;18.40;64.80;;;;;;5341775;26;20337;-63
2024/05/02 03:21:06;;;;;;;6.97;2.35;;;18.40;64.90;;;;;;5341250;26;20325;-62
2024/05/02 03:23:31;;;;;;;7.10;2.33;;;18.40;64.90;;;;;;5341103;26;20926;-61
2024/05/02 03:26:01;;;;;;;5.53;1.90;;;18.40;64.80;;;;;;5340915;26;21234;-63
2024/05/02 03:28:27;;;;;;;4.30;2.20;;;18.40;64.80;;;;;;5341998;26;20854;-63
2024/05/02 03:30:52;;;;;;;5.40;2.30;;;18.40;64.90;;;;;;5342221;26;20332;-62
2024/05/02 03:33:18;;;;;;;4.75;1.95;;;18.40;64.90;;;;;;5340673;26;20794;-62
2024/05/02 03:35:44;;;;;;;4.40;2.10;;;18.40;64.90;;;;;;5335114;26;20430;-62
2024/05/02 03:38:10;;;;;;;4.17;2.20;;;18.40;65.00;;;;;;5340610;26;20355;-63
2024/05/02 03:40:35;;;;;;;6.07;1.85;;;18.40;64.80;;;;;;5342083;26;20317;-63
2024/05/02 03:43:01;;;;;;;4.50;1.93;;;18.40;64.90;;;;;;5342420;26;20325;-63
2024/05/02 03:45:27;;;;;;;7.63;2.30;;;18.50;64.90;;;;;;5368842;26;20340;-61
2024/05/02 03:47:52;;;;;;;3.50;2.00;;;18.50;64.60;;;;;;5334947;26;20332;-63
2024/05/02 03:50:18;;;;;;;5.13;2.17;;;18.50;64.60;;;;;;5335092;26;20464;-62
2024/05/02 03:52:45;;;;;;;4.57;1.90;;;18.40;64.70;;;;;;5332118;26;20344;-61
2024/05/02 03:55:11;;;;;;;5.85;2.10;;;18.40;65.00;;;;;;5341275;26;20454;-62
2024/05/02 03:57:36;;;;;;;4.30;2.30;;;18.40;64.80;;;;;;5339964;26;20819;-63
2024/05/02 04:00:02;;;;;;;5.47;2.53;;;18.40;64.80;;;;;;5342114;26;20341;-62
2024/05/02 04:02:28;;;;;;;4.60;2.20;;;18.40;65.10;;;;;;5341418;26;20424;-62
2024/05/02 04:04:53;;;;;;;5.57;2.40;;;18.40;64.80;;;;;;5340021;26;20337;-63
2024/05/02 04:07:19;;;;;;;8.55;2.35;;;18.40;65.00;;;;;;5340638;26;20377;-63
2024/05/02 04:09:45;;;;;;;7.43;2.50;;;18.40;65.00;;;;;;5342079;26;20332;-63
2024/05/02 04:12:10;;;;;;;5.80;2.20;;;18.50;64.80;;;;;;5342328;26;20790;-63
2024/05/02 04:14:36;;;;;;;6.67;2.10;;;18.50;64.80;;;;;;5340770;26;20341;-62
2024/05/02 04:17:02;;;;;;;7.13;2.37;;;18.40;65.00;;;;;;5338868;26;21057;-63
2024/05/02 04:19:27;;;;;;;7.03;1.90;;;18.40;65.00;;;;;;5340189;26;20369;-62
2024/05/02 04:21:53;;;;;;;5.23;2.20;;;18.40;65.30;;;;;;5341898;26;20703;-63
2024/05/02 04:24:19;;;;;;;4.43;2.17;;;18.30;65.50;;;;;;5339444;26;20365;-63
2024/05/02 04:26:44;;;;;;;4.50;2.33;;;18.40;65.60;;;;;;5341752;26;20336;-61
2024/05/02 04:29:10;;;;;;;5.30;2.10;;;18.40;65.60;;;;;;5340976;26;20329;-63
2024/05/02 04:31:35;;;;;;;6.00;2.10;;;18.40;65.40;;;;;;5341424;26;20329;-63
2024/05/02 04:34:02;;;;;;;4.53;2.07;;;18.40;65.30;;;;;;5341201;26;20405;-63
2024/05/02 04:36:28;;;;;;;4.20;2.33;;;18.50;65.50;;;;;;5340269;26;20357;-63
2024/05/02 04:38:53;;;;;;;6.93;2.37;;;18.50;65.20;;;;;;5341240;26;20369;-62
2024/05/02 04:41:19;;;;;;;6.77;2.50;;;18.50;65.20;;;;;;5341271;26;20417;-63
2024/05/02 04:43:46;;;;;;;6.53;2.55;;;18.50;65.50;;;;;;5337256;26;20357;-63
2024/05/02 04:46:13;;;;;;;7.15;2.17;;;18.50;65.40;;;;;;5341404;26;20336;-62
2024/05/02 04:48:39;;;;;;;5.43;2.20;;;18.60;65.40;;;;;;5338670;26;20352;-63
2024/05/02 04:51:05;;;;;;;4.88;2.38;;;18.60;65.30;;;;;;5307407;27;20435;-63
2024/05/02 04:53:30;;;;;;;5.30;2.33;;;18.60;65.30;;;;;;5320150;26;20837;-62
2024/05/02 04:55:56;;;;;;;6.45;2.70;;;18.70;65.20;;;;;;5340090;26;20377;-63
2024/05/02 04:58:22;;;;;;;8.17;2.13;;;18.70;64.80;;;;;;5340689;26;20363;-63
2024/05/02 05:00:47;;;;;;;6.75;2.30;;;18.70;65.00;;;;;;5340258;26;20357;-63
2024/05/02 05:03:13;;;;;;;5.53;2.25;;;18.70;65.00;;;;;;5340819;26;20372;-63
2024/05/02 05:05:39;;;;;;;8.55;2.20;;;18.80;65.70;;;;;;5339225;26;20356;-62
2024/05/02 05:08:05;;;;;;;7.23;2.17;;;18.90;64.90;;;;;;5341458;26;20348;-63
2024/05/02 05:10:31;;;;;;;5.60;2.53;;;18.90;64.80;;;;;;5339696;26;20329;-62
2024/05/02 05:12:57;;;;;;;4.27;2.30;;;19.00;64.60;;;;;;5339784;26;20369;-60
2024/05/02 05:15:23;;;;;;;6.45;2.40;;;19.00;64.50;;;;;;5341195;26;20345;-63
2024/05/02 05:17:49;;;;;;;3.70;1.70;;;19.00;64.40;;;;;;5341486;26;20329;-62
2024/05/02 05:20:15;;;;;;;4.72;1.77;;;19.10;64.30;;;;;;5340740;26;20718;-62
2024/05/02 05:22:41;;;;;;;3.87;2.03;;;19.10;64.20;;;;;;5340302;26;20365;-62
2024/05/02 05:25:06;;;;;;;5.75;2.13;;;19.20;64.20;;;;;;5340120;26;20333;-62
2024/05/02 05:27:32;;;;;;;4.97;2.10;;;19.20;64.20;;;;;;5339332;26;20436;-62
2024/05/02 05:29:58;;;;;;;4.60;2.05;;;19.20;64.10;;;;;;5341039;26;20424;-63
2024/05/02 05:32:24;;;;;;;5.30;2.30;;;19.30;64.70;;;;;;5342539;26;20328;-63
2024/05/02 05:34:50;;;;;;;5.20;2.00;;;19.40;63.80;;;;;;5338959;26;20678;-62
2024/05/02 05:37:15;;;;;;;5.77;2.33;;;19.40;64.70;;;;;;5340166;26;20344;-62
2024/05/02 05:39:41;;;;;;;6.38;2.20;;;19.50;63.70;;;;;;5340918;26;20396;-63
2024/05/02 05:42:07;;;;;;;8.07;2.13;;;19.50;63.70;;;;;;5338895;26;20337;-62
2024/05/02 05:44:33;;;;;;;6.45;1.95;;;19.60;63.30;;;;;;5339849;26;20341;-63
2024/05/02 05:46:58;;;;;;;4.37;1.90;;;19.60;62.90;;;;;;5340924;26;20333;-63
2024/05/02 05:49:24;;;;;;;6.30;1.98;;;19.60;62.90;;;;;;5339314;26;20333;-60
2024/05/02 05:51:49;;;;;;;4.25;1.85;;;19.70;62.80;;;;;;5334370;26;20384;-60
2024/05/02 05:54:15;;;;;;;6.13;2.30;;;19.70;62.80;;;;;;5314751;26;20380;-59
2024/05/02 05:56:41;;;;;;;4.68;2.03;;;19.80;62.90;;;;;;5306662;26;20366;-61
2024/05/02 05:59:06;;;;;;;7.53;2.05;;;19.90;62.40;;;;;;5339662;26;20993;-59
2024/05/02 06:01:32;;;;;;;10.27;2.00;;;19.90;62.00;;;;;;5326618;26;20335;-60
2024/05/02 06:03:58;;;;;;;8.15;2.42;;;20.00;61.50;;;;;;5321233;26;20332;-59
2024/05/02 06:06:24;;;;;;;5.63;2.07;;;19.90;61.60;;;;;;5340618;26;20691;-60
2024/05/02 06:08:50;;;;;;;6.00;2.17;;;20.00;61.90;;;;;;5340021;26;20381;-59
2024/05/02 06:11:15;;;;;;;7.00;2.10;;;19.90;61.90;;;;;;5340114;26;20353;-58
2024/05/02 06:13:41;;;;;;;6.07;2.00;;;19.90;61.60;;;;;;5336902;26;20688;-59
2024/05/02 06:16:07;;;;;;;5.50;2.17;;;20.00;61.80;;;;;;5335919;26;20329;-59
2024/05/02 06:18:32;;;;;;;7.95;2.00;;;20.00;61.80;;;;;;5339341;26;20356;-59
2024/05/02 06:20:58;;;;;;;4.45;1.98;;;20.00;61.70;;;;;;5337528;26;20328;-61
2024/05/02 06:23:24;;;;;;;7.17;2.10;;;20.10;61.70;;;;;;5342483;26;20369;-59
2024/05/02 06:25:49;;;;;;;8.80;2.33;;;20.10;61.60;;;;;;5338649;26;21976;-59
2024/05/02 06:28:15;;;;;;;5.75;2.08;;;20.10;61.80;;;;;;5339964;26;20345;-61
2024/05/02 06:30:41;;;;;;;6.90;1.83;;;20.00;62.00;;;;;;5327162;26;20400;-61
2024/05/02 06:33:07;;;;;;;9.32;2.20;;;20.10;61.60;;;;;;5304351;26;20332;-61
2024/05/02 06:35:33;;;;;;;6.17;2.23;;;20.10;61.50;;;;;;5333459;26;20396;-62
2024/05/02 06:37:59;;;;;;;4.18;1.80;;;20.20;61.40;;;;;;5332700;26;20344;-60
2024/05/02 06:40:27;;;;;;;6.47;1.67;;;20.30;61.40;;;;;;5333252;26;20433;-61
2024/05/02 06:42:56;;;;;;;5.63;1.88;;;20.40;61.40;;;;;;5334893;26;20329;-61
2024/05/02 06:45:24;;;;;;;5.03;2.07;;;20.30;61.50;;;;;;5334961;26;20325;-60
2024/05/02 06:47:50;;;;;;;5.20;2.00;;;20.30;61.80;;;;;;5332172;26;20376;-60
2024/05/02 06:50:16;;;;;;;7.63;2.03;;;20.40;61.80;;;;;;5334770;26;20341;-61
2024/05/02 06:52:43;;;;;;;5.00;1.90;;;20.40;61.60;;;;;;5334839;26;21012;-61
2024/05/02 06:55:08;;;;;;;6.88;1.98;;;20.50;61.50;;;;;;5334336;26;20437;-61
2024/05/02 06:57:34;;;;;;;4.15;1.80;;;20.60;61.30;;;;;;5333553;26;20405;-61
2024/05/02 07:00:00;;;;;;;6.63;1.87;;;20.60;61.20;;;;;;5335382;26;20714;-60
2024/05/02 07:02:25;;;;;;;7.40;2.10;;;20.70;60.80;;;;;;5332687;26;20759;-60
2024/05/02 07:04:51;;;;;;;6.40;2.20;;;20.80;61.00;;;;;;5333724;26;20333;-60
2024/05/02 07:07:17;;;;;;;8.40;2.00;;;20.80;60.80;;;;;;5329815;26;20437;-61
2024/05/02 07:09:42;;;;;;;8.23;2.10;;;20.90;60.60;;;;;;5331363;26;20802;-59
2024/05/02 07:12:08;;;;;;;4.33;1.93;;;20.90;60.70;;;;;;5338500;26;20381;-60
2024/05/02 07:14:34;;;;;;;12.07;2.13;;;21.00;60.30;;;;;;5338376;26;20353;-59
2024/05/02 07:16:59;;;;;;;8.80;1.67;;;21.10;60.20;;;;;;5340040;26;20359;-60
2024/05/02 07:19:25;;;;;;;8.27;1.80;;;21.10;60.00;;;;;;5342214;26;20819;-60
2024/05/02 07:21:51;;;;;;;5.13;1.80;;;21.10;59.90;;;;;;5340826;26;20439;-59
2024/05/02 07:24:17;;;;;;;4.45;1.88;;;21.20;59.80;;;;;;5338584;26;20753;-60
2024/05/02 07:26:42;;;;;;;6.43;1.60;;;21.20;59.90;;;;;;5339087;26;20445;-59
2024/05/02 07:29:08;;;;;;;8.68;2.33;;;21.30;60.90;;;;;;5342533;26;20329;-60
2024/05/02 07:31:33;;;;;;;8.20;2.00;;;21.30;61.10;;;;;;5339763;26;20451;-59
2024/05/02 07:33:59;;;;;;;4.50;1.63;;;21.40;61.90;;;;;;5339866;26;20671;-60
2024/05/02 07:36:25;;;;;;;8.93;2.10;;;21.40;60.80;;;;;;5338949;26;20353;-60
2024/05/02 07:38:51;;;;;;;7.03;2.00;;;21.50;61.00;;;;;;5338621;26;20332;-58
2024/05/02 07:41:16;;;;;;;7.63;1.77;;;21.60;60.50;;;;;;5339523;26;20333;-58
2024/05/02 07:43:43;;;;;;;6.05;1.75;;;21.60;60.70;;;;;;5339917;26;20353;-60
2024/05/02 07:46:09;;;;;;;5.25;1.65;;;21.70;60.00;;;;;;5340429;26;20516;-60
2024/05/02 07:48:34;;;;;;;4.75;1.67;;;21.70;60.00;;;;;;5338532;26;20660;-60
2024/05/02 07:51:00;;;;;;;5.40;2.00;;;21.80;59.70;;;;;;5341131;26;20372;-60
2024/05/02 07:53:26;;;;;;;6.10;1.90;;;21.80;59.20;;;;;;5340300;26;20367;-60
2024/05/02 07:55:51;;;;;;;9.27;1.80;;;21.90;59.80;;;;;;5341710;26;20337;-60
2024/05/02 07:58:17;;;;;;;6.00;1.67;;;21.90;59.70;;;;;;5341516;26;20439;-59
2024/05/02 08:00:43;;;;;;;3.37;1.73;;;21.90;59.60;;;;;;5341075;26;20363;-59
2024/05/02 08:03:08;;;;;;;6.57;3.72;;;22.00;60.00;;;;;;5341025;26;20341;-61
2024/05/02 08:05:34;;;;;;;8.33;3.30;;;22.00;59.30;;;;;;5340006;26;20329;-61
2024/05/02 08:08:00;;;;;;;6.18;1.85;;;22.10;59.40;;;;;;5336183;26;20394;-61
2024/05/02 08:10:26;;;;;;;7.85;1.88;;;22.20;59.40;;;;;;5339804;26;20428;-59
2024/05/02 08:12:52;;;;;;;4.03;1.60;;;22.20;59.00;;;;;;5341604;26;20352;-59
2024/05/02 08:15:18;;;;;;;6.35;1.58;;;22.30;59.10;;;;;;5340982;26;20318;-60
2024/05/02 08:17:44;;;;;;;5.95;1.77;;;22.30;59.20;;;;;;5334938;26;20336;-59
2024/05/02 08:20:10;;;;;;;8.73;1.90;;;22.40;59.40;;;;;;5341819;26;20403;-58
2024/05/02 08:22:36;;;;;;;6.03;1.63;;;22.50;59.00;;;;;;5341876;26;20384;-58
2024/05/02 08:25:02;;;;;;;7.40;1.73;;;22.60;58.60;;;;;;5334461;26;20341;-59
2024/05/02 08:27:27;;;;;;;5.40;1.53;;;22.50;57.60;;;;;;5337238;26;20428;-59
2024/05/02 08:29:53;;;;;;;3.92;1.67;;;22.60;58.60;;;;;;5335532;26;20368;-59
2024/05/02 08:32:20;;;;;;;8.85;2.08;;;22.70;58.30;;;;;;5340929;26;20499;-58
2024/05/02 08:34:46;;;;;;;6.78;1.70;;;22.80;57.90;;;;;;5337622;26;20335;-59
2024/05/02 08:37:13;;;;;;;5.77;1.60;;;22.90;56.90;;;;;;5340401;26;20325;-58
2024/05/02 08:39:39;;;;;;;6.22;1.98;;;22.90;56.50;;;;;;5339933;26;20388;-59
2024/05/02 08:42:07;;;;;;;4.50;1.70;;;22.90;55.80;;;;;;5334767;26;20821;-59
2024/05/02 08:44:33;;;;;;;4.95;1.70;;;23.00;56.40;;;;;;5338749;26;20340;-58
2024/05/02 08:47:03;;;;;;;6.30;2.10;;;23.20;56.00;;;;;;5339476;26;20893;-59
2024/05/02 08:49:34;;;;;;;7.68;1.90;;;23.80;54.90;;;;;;5340788;26;20434;-58
2024/05/02 08:52:03;;;;;;;4.95;1.60;;;24.20;53.80;;;;;;5338732;26;20373;-59
2024/05/02 08:54:29;;;;;;;6.10;1.60;;;24.30;53.70;;;;;;5337052;26;20340;-58
2024/05/02 08:56:59;;;;;;;4.27;1.60;;;24.30;53.80;;;;;;5338517;26;20364;-58
2024/05/02 08:59:29;;;;;;;6.40;1.50;;;25.80;51.60;;;;;;5366497;26;20329;-57
2024/05/02 09:01:56;;;;;;;6.45;1.65;;;27.40;49.00;;;;;;5338314;26;21126;-59
2024/05/02 09:04:23;;;;;;;7.70;1.77;;;26.80;49.20;;;;;;5338852;26;20747;-59
2024/05/02 09:06:51;;;;;;;7.10;1.60;;;25.90;50.50;;;;;;5334799;26;20817;-58
2024/05/02 09:09:17;;;;;;;9.65;1.75;;;27.60;48.50;;;;;;5340112;26;20402;-60
2024/05/02 09:11:57;;;;;;;6.87;1.50;;;29.70;46.10;;;;;;5340766;26;20337;-59
2024/05/02 09:14:23;;;;;;;6.82;1.92;;;31.30;42.30;;;;;;5340785;26;20349;-59
2024/05/02 09:16:50;;;;;;;5.97;1.50;;;32.10;40.50;;;;;;5339526;26;20337;-59
2024/05/02 09:19:17;;;;;;;6.38;1.80;;;32.70;38.90;;;;;;5336138;26;20862;-59
2024/05/02 09:21:43;;;;;;;5.82;1.45;;;32.80;37.90;;;;;;5341752;26;20348;-58
2024/05/02 09:24:10;;;;;;;7.60;1.70;;;32.50;38.40;;;;;;5340543;26;20459;-60
2024/05/02 09:26:36;;;;;;;5.00;1.45;;;30.70;40.30;;;;;;5340178;26;20683;-60
2024/05/02 09:29:07;;;;;;;9.40;1.73;;;28.10;43.00;;;;;;5340767;26;20325;-59
2024/05/02 09:31:36;;;;;;;5.25;2.00;;;26.70;45.10;;;;;;5340286;26;20746;-60
2024/05/02 09:34:03;;;;;;;4.82;1.60;;;26.00;45.90;;;;;;5338092;26;20345;-60
2024/05/02 09:36:29;;;;;;;4.40;1.40;;;25.50;46.90;;;;;;5341546;26;20921;-59
2024/05/02 09:39:04;;;;;;;5.72;1.35;;;25.30;47.30;;;;;;5365419;26;20365;-61
2024/05/02 09:41:33;;;;;;;6.70;1.40;;;25.20;48.30;;;;;;5323767;26;20388;-60
2024/05/02 09:44:10;;;;;;;8.95;1.90;;;25.10;48.90;;;;;;5340468;26;20890;-59
2024/05/02 09:46:39;;;;;;;6.63;1.60;;;25.30;48.80;;;;;;5306876;26;20339;-59
2024/05/02 09:49:10;;;;;;;4.35;1.30;;;25.30;48.50;;;;;;5306477;27;20316;-60
2024/05/02 09:51:40;;;;;;;3.90;1.70;;;25.40;48.50;;;;;;5304725;27;20331;-62
2024/05/02 09:54:07;;;;;;;5.50;1.60;;;25.60;48.10;;;;;;5314797;26;20333;-60
2024/05/02 09:56:35;;;;;;;5.13;1.60;;;25.70;47.80;;;;;;5314219;26;20339;-59
2024/05/02 09:59:03;;;;;;;6.50;1.80;;;25.90;47.40;;;;;;5315143;26;20876;-61
2024/05/02 10:01:30;;;;;;;5.13;1.30;;;26.00;47.00;;;;;;5324077;26;20763;-59
2024/05/02 10:03:58;;;;;;;4.20;1.45;;;26.20;46.30;;;;;;5309005;26;20336;-60
2024/05/02 10:06:24;;;;;;;3.95;1.25;;;26.40;46.00;;;;;;5332145;26;20329;-59
2024/05/02 10:08:51;;;;;;;11.50;1.65;;;26.60;45.90;;;;;;5340767;26;20479;-59
2024/05/02 10:11:17;;;;;;;4.83;1.73;;;26.60;45.90;;;;;;5339635;26;20380;-60
2024/05/02 10:13:58;;;;;;;3.40;1.30;;;26.70;45.20;;;;;;5338073;26;20337;-61
2024/05/02 10:16:24;;;;;;;4.53;1.00;;;26.80;43.90;;;;;;5334840;26;20356;-61
2024/05/02 10:18:55;;;;;;;5.68;1.60;;;27.00;43.80;;;;;;5340588;26;20317;-61
2024/05/02 10:21:24;;;;;;;4.25;1.58;;;27.20;43.70;;;;;;5340330;26;20384;-59
2024/05/02 10:23:50;;;;;;;4.78;1.00;;;27.50;43.20;;;;;;5334434;26;20755;-60
2024/05/02 10:26:25;;;;;;;6.40;1.13;;;27.60;42.30;;;;;;5334405;26;20321;-60
2024/05/02 10:28:53;;;;;;;5.90;1.25;;;27.60;42.20;;;;;;5324169;26;20842;-60
2024/05/02 10:31:21;;;;;;;4.53;1.27;;;27.60;42.30;;;;;;5313297;26;20383;-59
2024/05/02 10:33:46;;;;;;;7.05;1.67;;;27.80;41.60;;;;;;5319208;26;20432;-61
2024/05/02 10:36:17;;;;;;;4.40;1.10;;;27.90;41.00;;;;;;5336189;26;20348;-61
2024/05/02 10:38:43;;;;;;;6.53;1.00;;;28.00;41.30;;;;;;5325921;26;20335;-62
2024/05/02 10:41:11;;;;;;;5.75;1.10;;;28.10;40.90;;;;;;5316291;26;20337;-60
2024/05/02 10:43:37;;;;;;;5.05;1.30;;;28.20;41.10;;;;;;5322755;26;20378;-60
2024/05/02 10:46:04;;;;;;;3.63;1.20;;;28.20;40.80;;;;;;5319656;26;20940;-62
2024/05/02 10:48:30;;;;;;;5.95;1.25;;;28.30;40.80;;;;;;5308916;26;20343;-61
2024/05/02 10:50:56;;;;;;;5.60;1.50;;;28.30;40.90;;;;;;5338959;26;20370;-61
2024/05/02 10:53:22;;;;;;;7.07;1.25;;;28.70;40.30;;;;;;5330081;26;20343;-60
2024/05/02 10:55:49;;;;;;;4.85;1.40;;;28.80;39.90;;;;;;5313412;26;20339;-60
2024/05/02 10:58:15;;;;;;;6.75;1.50;;;29.10;39.60;;;;;;5313621;26;20913;-60
2024/05/02 11:00:47;;;;;;;4.22;1.00;;;29.30;39.00;;;;;;5311055;26;20332;-61
2024/05/02 11:03:14;;;;;;;6.63;1.40;;;29.40;38.80;;;;;;5312410;26;20480;-61
2024/05/02 11:05:46;;;;;;;3.72;1.25;;;29.50;38.50;;;;;;5325894;26;20341;-61
2024/05/02 11:08:24;;;;;;;7.88;1.10;;;29.60;38.80;;;;;;5336554;26;20369;-61
2024/05/02 11:10:53;;;;;;;7.65;1.20;;;29.60;39.60;;;;;;5342703;26;20671;-62
2024/05/02 11:13:20;;;;;;;6.80;1.17;;;29.70;39.10;;;;;;5339091;26;20380;-64
2024/05/02 11:15:46;;;;;;;4.20;1.40;;;29.80;38.00;;;;;;5338667;26;20492;-62
2024/05/02 11:18:13;;;;;;;4.20;1.13;;;29.80;38.20;;;;;;5337984;26;20344;-62
2024/05/02 11:20:39;;;;;;;5.25;1.30;;;29.90;38.00;;;;;;5331919;26;20348;-62
2024/05/02 11:23:05;;;;;;;7.57;1.25;;;30.00;38.30;;;;;;5339768;26;20368;-62
2024/05/02 11:25:31;;;;;;;7.10;1.52;;;29.80;37.40;;;;;;5341263;26;21025;-62
2024/05/02 11:27:57;;;;;;;4.35;1.00;;;29.90;37.70;;;;;;5341965;26;20344;-64
2024/05/02 11:30:28;;;;;;;6.13;1.80;;;30.10;38.20;;;;;;5331652;26;20846;-62
2024/05/02 11:32:55;;;;;;;7.03;1.58;;;30.10;37.70;;;;;;5340735;26;20393;-61
2024/05/02 11:35:20;;;;;;;10.05;1.60;;;30.10;37.70;;;;;;5340405;26;20337;-62
2024/05/02 11:37:46;;;;;;;8.15;1.75;;;30.10;37.90;;;;;;5342348;26;20380;-62
2024/05/02 11:40:12;;;;;;;6.07;1.38;;;30.20;37.90;;;;;;5340694;26;20329;-62
2024/05/02 11:42:38;;;;;;;7.85;1.15;;;30.20;37.70;;;;;;5335923;26;20674;-62
2024/05/02 11:45:04;;;;;;;6.30;1.38;;;30.40;37.60;;;;;;5339573;26;20948;-61
2024/05/02 11:47:30;;;;;;;7.75;1.27;;;30.40;37.70;;;;;;5341386;26;20345;-62
2024/05/02 11:49:55;;;;;;;3.53;1.30;;;30.40;37.20;;;;;;5341338;26;20442;-62
2024/05/02 11:52:21;;;;;;;6.73;1.40;;;30.40;37.10;;;;;;5342016;26;20487;-61
2024/05/02 11:54:47;;;;;;;4.77;1.10;;;30.60;37.80;;;;;;5341448;26;20332;-62
2024/05/02 11:57:13;;;;;;;8.98;1.58;;;30.70;38.00;;;;;;5369340;26;20325;-62
2024/05/02 11:59:38;;;;;;;4.05;1.25;;;30.70;37.50;;;;;;5339960;26;20344;-62
2024/05/02 12:02:04;;;;;;;6.35;1.67;;;30.80;37.70;;;;;;5342204;26;20344;-61
2024/05/02 12:04:30;;;;;;;5.97;1.53;;;30.80;37.40;;;;;;5339738;26;20344;-61
2024/05/02 12:06:56;;;;;;;4.45;1.30;;;30.60;37.40;;;;;;5342083;26;20336;-60
2024/05/02 12:09:22;;;;;;;6.85;1.20;;;30.80;37.50;;;;;;5336099;26;20341;-60
2024/05/02 12:11:48;;;;;;;7.03;1.27;;;31.10;37.30;;;;;;5342231;26;20321;-62
2024/05/02 12:14:13;;;;;;;4.20;1.30;;;31.20;36.90;;;;;;5338459;26;20388;-59
2024/05/02 12:16:39;;;;;;;6.17;1.33;;;31.30;36.70;;;;;;5339769;26;20333;-59
2024/05/02 12:19:05;;;;;;;6.07;1.60;;;31.30;36.40;;;;;;5342128;26;20321;-60
2024/05/02 12:21:31;;;;;;;7.78;1.80;;;31.40;36.50;;;;;;5342570;26;20807;-59
2024/05/02 12:24:01;;;;;;;5.80;1.23;;;31.70;36.40;;;;;;5341697;26;20341;-60
2024/05/02 12:26:30;;;;;;;8.43;1.70;;;31.70;35.50;;;;;;5341489;26;20333;-59
2024/05/02 12:28:55;;;;;;;5.20;1.50;;;31.50;35.60;;;;;;5340002;26;20325;-60
2024/05/02 12:31:21;;;;;;;5.50;1.48;;;31.40;35.60;;;;;;5340305;26;20356;-59
2024/05/02 12:33:47;;;;;;;6.97;1.70;;;30.90;36.30;;;;;;5338450;26;20332;-59
2024/05/02 12:36:13;;;;;;;4.20;2.07;;;30.60;36.70;;;;;;5340818;26;20758;-60
2024/05/02 12:38:40;;;;;;;6.22;1.55;;;30.00;37.80;;;;;;5339091;26;20318;-60
2024/05/02 12:41:06;;;;;;;5.45;1.33;;;30.00;38.40;;;;;;5341837;26;20360;-60